sensor_id;sensor_type;location;lat;lon;timestamp;P1;durP1;ratioP1;P2;durP2;ratioP2
8656;SDS011;4366;50.764;7.184;2022-10-16T00:05:04;1.30;;;1.30;;
8656;SDS011;4366;50.764;7.184;2022-10-16T00:10:06;1.40;;;1.30;;
8656;SDS011;4366;50.764;7.184;2022-10-16T00:15:08;3.73;;;1.60;;
8656;SDS011;4366;50.764;7.184;2022-10-16T00:20:10;1.20;;;1.20;;
8656;SDS011;4366;50.764;7.184;2022-10-16T00:25:12;1.47;;;1.20;;
8656;SDS011;4366;50.764;7.184;2022-10-16T00:30:14;1.10;;;1.10;;
8656;SDS011;4366;50.764;7.184;2022-10-16T00:35:16;1.00;;;1.00;;
8656;SDS011;4366;50.764;7.184;2022-10-16T00:40:17;3.03;;;2.30;;
8656;SDS011;4366;50.764;7.184;2022-10-16T00:45:19;1.93;;;1.33;;
8656;SDS011;4366;50.764;7.184;2022-10-16T00:50:31;1.37;;;1.27;;
8656;SDS011;4366;50.764;7.184;2022-10-16T00:55:35;1.30;;;1.30;;
8656;SDS011;4366;50.764;7.184;2022-10-16T01:00:42;1.20;;;1.20;;
8656;SDS011;4366;50.764;7.184;2022-10-16T01:05:45;1.97;;;1.40;;
8656;SDS011;4366;50.764;7.184;2022-10-16T01:11:16;1.30;;;1.30;;
8656;SDS011;4366;50.764;7.184;2022-10-16T01:16:29;1.20;;;1.20;;
8656;SDS011;4366;50.764;7.184;2022-10-16T01:21:38;1.37;;;1.30;;
8656;SDS011;4366;50.764;7.184;2022-10-16T01:32:56;3.17;;;1.30;;
8656;SDS011;4366;50.764;7.184;2022-10-16T01:38:25;1.33;;;1.17;;
8656;SDS011;4366;50.764;7.184;2022-10-16T01:43:33;1.73;;;1.63;;
8656;SDS011;4366;50.764;7.184;2022-10-16T01:48:39;1.63;;;1.40;;
8656;SDS011;4366;50.764;7.184;2022-10-16T01:53:47;1.20;;;1.20;;
8656;SDS011;4366;50.764;7.184;2022-10-16T01:59:13;1.20;;;1.20;;
8656;SDS011;4366;50.764;7.184;2022-10-16T02:16:55;1.10;;;1.10;;
8656;SDS011;4366;50.764;7.184;2022-10-16T02:22:20;1.20;;;1.20;;
8656;SDS011;4366;50.764;7.184;2022-10-16T02:27:31;1.10;;;1.10;;
8656;SDS011;4366;50.764;7.184;2022-10-16T02:33:15;1.47;;;1.00;;
8656;SDS011;4366;50.764;7.184;2022-10-16T02:38:26;1.10;;;1.10;;
8656;SDS011;4366;50.764;7.184;2022-10-16T02:43:28;0.97;;;0.97;;
8656;SDS011;4366;50.764;7.184;2022-10-16T03:27:27;0.80;;;0.80;;
8656;SDS011;4366;50.764;7.184;2022-10-16T03:32:30;0.90;;;0.90;;
8656;SDS011;4366;50.764;7.184;2022-10-16T03:37:57;0.53;;;0.53;;
8656;SDS011;4366;50.764;7.184;2022-10-16T03:43:24;0.90;;;0.90;;
8656;SDS011;4366;50.764;7.184;2022-10-16T03:48:29;1.83;;;0.80;;
8656;SDS011;4366;50.764;7.184;2022-10-16T03:59:05;0.87;;;0.87;;
8656;SDS011;4366;50.764;7.184;2022-10-16T04:04:15;0.70;;;0.70;;
8656;SDS011;4366;50.764;7.184;2022-10-16T04:10:13;0.70;;;0.70;;
8656;SDS011;4366;50.764;7.184;2022-10-16T04:15:53;0.70;;;0.70;;
8656;SDS011;4366;50.764;7.184;2022-10-16T04:21:02;1.83;;;0.90;;
8656;SDS011;4366;50.764;7.184;2022-10-16T04:26:05;0.90;;;0.90;;
8656;SDS011;4366;50.764;7.184;2022-10-16T04:31:21;0.97;;;0.97;;
8656;SDS011;4366;50.764;7.184;2022-10-16T04:36:23;1.00;;;1.00;;
8656;SDS011;4366;50.764;7.184;2022-10-16T04:41:29;1.33;;;1.00;;
8656;SDS011;4366;50.764;7.184;2022-10-16T04:46:32;1.17;;;0.90;;
8656;SDS011;4366;50.764;7.184;2022-10-16T04:51:44;0.80;;;0.80;;
8656;SDS011;4366;50.764;7.184;2022-10-16T04:56:46;1.00;;;1.00;;
8656;SDS011;4366;50.764;7.184;2022-10-16T05:01:49;0.90;;;0.90;;
8656;SDS011;4366;50.764;7.184;2022-10-16T05:06:50;0.97;;;0.97;;
8656;SDS011;4366;50.764;7.184;2022-10-16T05:11:52;1.00;;;1.00;;
8656;SDS011;4366;50.764;7.184;2022-10-16T05:16:54;1.10;;;1.10;;
8656;SDS011;4366;50.764;7.184;2022-10-16T05:21:55;0.90;;;0.90;;
8656;SDS011;4366;50.764;7.184;2022-10-16T05:39:55;1.97;;;1.10;;
8656;SDS011;4366;50.764;7.184;2022-10-16T05:44:59;4.67;;;1.40;;
8656;SDS011;4366;50.764;7.184;2022-10-16T05:50:07;1.23;;;1.20;;
8656;SDS011;4366;50.764;7.184;2022-10-16T05:55:09;1.00;;;1.00;;
8656;SDS011;4366;50.764;7.184;2022-10-16T06:00:11;1.10;;;1.10;;
8656;SDS011;4366;50.764;7.184;2022-10-16T06:05:13;2.93;;;1.13;;
8656;SDS011;4366;50.764;7.184;2022-10-16T06:10:15;1.10;;;1.10;;
8656;SDS011;4366;50.764;7.184;2022-10-16T06:15:16;0.93;;;0.93;;
8656;SDS011;4366;50.764;7.184;2022-10-16T06:20:18;1.13;;;1.07;;
8656;SDS011;4366;50.764;7.184;2022-10-16T06:25:20;1.23;;;1.23;;
8656;SDS011;4366;50.764;7.184;2022-10-16T06:30:22;1.17;;;1.17;;
8656;SDS011;4366;50.764;7.184;2022-10-16T06:35:23;1.20;;;1.20;;
8656;SDS011;4366;50.764;7.184;2022-10-16T06:40:25;1.20;;;1.20;;
8656;SDS011;4366;50.764;7.184;2022-10-16T06:45:27;1.13;;;1.07;;
8656;SDS011;4366;50.764;7.184;2022-10-16T06:50:29;1.20;;;1.20;;
8656;SDS011;4366;50.764;7.184;2022-10-16T06:55:31;1.40;;;1.10;;
8656;SDS011;4366;50.764;7.184;2022-10-16T07:00:32;1.23;;;1.20;;
8656;SDS011;4366;50.764;7.184;2022-10-16T07:05:38;1.63;;;1.53;;
8656;SDS011;4366;50.764;7.184;2022-10-16T07:10:40;2.73;;;1.47;;
8656;SDS011;4366;50.764;7.184;2022-10-16T07:15:42;1.80;;;1.70;;
8656;SDS011;4366;50.764;7.184;2022-10-16T07:20:43;1.77;;;1.67;;
8656;SDS011;4366;50.764;7.184;2022-10-16T07:25:45;1.80;;;1.70;;
8656;SDS011;4366;50.764;7.184;2022-10-16T07:30:47;3.10;;;2.57;;
8656;SDS011;4366;50.764;7.184;2022-10-16T07:35:50;2.60;;;2.23;;
8656;SDS011;4366;50.764;7.184;2022-10-16T07:40:56;2.17;;;1.93;;
8656;SDS011;4366;50.764;7.184;2022-10-16T07:46:01;2.00;;;1.90;;
8656;SDS011;4366;50.764;7.184;2022-10-16T07:51:07;0.90;;;0.90;;
8656;SDS011;4366;50.764;7.184;2022-10-16T07:56:08;0.80;;;0.80;;
8656;SDS011;4366;50.764;7.184;2022-10-16T08:01:12;1.37;;;1.17;;
8656;SDS011;4366;50.764;7.184;2022-10-16T08:06:15;1.23;;;1.00;;
8656;SDS011;4366;50.764;7.184;2022-10-16T08:11:22;1.60;;;0.93;;
8656;SDS011;4366;50.764;7.184;2022-10-16T08:16:25;0.80;;;0.80;;
8656;SDS011;4366;50.764;7.184;2022-10-16T08:21:27;1.97;;;0.90;;
8656;SDS011;4366;50.764;7.184;2022-10-16T08:26:29;0.93;;;0.90;;
8656;SDS011;4366;50.764;7.184;2022-10-16T08:31:31;0.90;;;0.90;;
8656;SDS011;4366;50.764;7.184;2022-10-16T08:36:32;0.80;;;0.80;;
8656;SDS011;4366;50.764;7.184;2022-10-16T08:51:59;0.87;;;0.70;;
8656;SDS011;4366;50.764;7.184;2022-10-16T08:57:09;0.60;;;0.60;;
8656;SDS011;4366;50.764;7.184;2022-10-16T09:07:32;0.43;;;0.43;;
8656;SDS011;4366;50.764;7.184;2022-10-16T09:12:37;0.70;;;0.70;;
8656;SDS011;4366;50.764;7.184;2022-10-16T09:17:46;0.63;;;0.63;;
8656;SDS011;4366;50.764;7.184;2022-10-16T09:28:04;2.10;;;0.70;;
8656;SDS011;4366;50.764;7.184;2022-10-16T09:33:06;1.40;;;0.53;;
8656;SDS011;4366;50.764;7.184;2022-10-16T09:38:19;0.70;;;0.70;;
8656;SDS011;4366;50.764;7.184;2022-10-16T09:48:57;0.40;;;0.40;;
8656;SDS011;4366;50.764;7.184;2022-10-16T09:59:11;0.50;;;0.50;;
8656;SDS011;4366;50.764;7.184;2022-10-16T10:04:14;0.77;;;0.77;;
8656;SDS011;4366;50.764;7.184;2022-10-16T10:24:55;0.50;;;0.50;;
8656;SDS011;4366;50.764;7.184;2022-10-16T10:35:46;0.37;;;0.37;;
8656;SDS011;4366;50.764;7.184;2022-10-16T10:46:22;1.70;;;0.63;;
8656;SDS011;4366;50.764;7.184;2022-10-16T10:51:44;0.63;;;0.63;;
8656;SDS011;4366;50.764;7.184;2022-10-16T11:02:00;0.50;;;0.40;;
8656;SDS011;4366;50.764;7.184;2022-10-16T11:07:37;1.50;;;0.50;;
8656;SDS011;4366;50.764;7.184;2022-10-16T11:12:42;0.40;;;0.40;;
8656;SDS011;4366;50.764;7.184;2022-10-16T11:28:34;0.77;;;0.47;;
8656;SDS011;4366;50.764;7.184;2022-10-16T11:33:39;1.00;;;1.00;;
8656;SDS011;4366;50.764;7.184;2022-10-16T11:38:51;1.47;;;1.37;;
8656;SDS011;4366;50.764;7.184;2022-10-16T11:49:18;0.40;;;0.40;;
8656;SDS011;4366;50.764;7.184;2022-10-16T11:54:32;1.60;;;1.50;;
8656;SDS011;4366;50.764;7.184;2022-10-16T12:00:28;4.40;;;3.20;;
8656;SDS011;4366;50.764;7.184;2022-10-16T12:05:25;1.50;;;1.40;;
8656;SDS011;4366;50.764;7.184;2022-10-16T12:10:42;1.30;;;1.10;;
8656;SDS011;4366;50.764;7.184;2022-10-16T12:15:47;1.53;;;0.60;;
8656;SDS011;4366;50.764;7.184;2022-10-16T12:20:59;0.30;;;0.30;;
8656;SDS011;4366;50.764;7.184;2022-10-16T12:26:11;0.57;;;0.57;;
8656;SDS011;4366;50.764;7.184;2022-10-16T12:31:12;0.70;;;0.70;;
8656;SDS011;4366;50.764;7.184;2022-10-16T12:36:15;0.50;;;0.50;;
8656;SDS011;4366;50.764;7.184;2022-10-16T12:41:28;0.57;;;0.57;;
8656;SDS011;4366;50.764;7.184;2022-10-16T12:46:36;0.40;;;0.40;;
8656;SDS011;4366;50.764;7.184;2022-10-16T12:51:40;0.40;;;0.40;;
8656;SDS011;4366;50.764;7.184;2022-10-16T13:07:51;0.60;;;0.40;;
8656;SDS011;4366;50.764;7.184;2022-10-16T13:18:38;0.40;;;0.40;;
8656;SDS011;4366;50.764;7.184;2022-10-16T13:24:00;0.47;;;0.40;;
8656;SDS011;4366;50.764;7.184;2022-10-16T13:29:09;1.60;;;0.40;;
8656;SDS011;4366;50.764;7.184;2022-10-16T13:34:12;0.50;;;0.50;;
8656;SDS011;4366;50.764;7.184;2022-10-16T13:39:26;1.20;;;0.50;;
8656;SDS011;4366;50.764;7.184;2022-10-16T13:44:30;0.43;;;0.43;;
8656;SDS011;4366;50.764;7.184;2022-10-16T13:49:37;1.27;;;0.50;;
8656;SDS011;4366;50.764;7.184;2022-10-16T13:54:39;1.90;;;0.50;;
8656;SDS011;4366;50.764;7.184;2022-10-16T13:59:41;0.40;;;0.40;;
8656;SDS011;4366;50.764;7.184;2022-10-16T14:04:43;0.30;;;0.30;;
8656;SDS011;4366;50.764;7.184;2022-10-16T14:09:47;1.13;;;0.77;;
8656;SDS011;4366;50.764;7.184;2022-10-16T14:14:51;0.60;;;0.60;;
8656;SDS011;4366;50.764;7.184;2022-10-16T14:19:55;0.50;;;0.50;;
8656;SDS011;4366;50.764;7.184;2022-10-16T14:30:22;0.50;;;0.50;;
8656;SDS011;4366;50.764;7.184;2022-10-16T14:40:33;0.60;;;0.60;;
8656;SDS011;4366;50.764;7.184;2022-10-16T14:45:39;2.97;;;0.70;;
8656;SDS011;4366;50.764;7.184;2022-10-16T14:50:42;0.43;;;0.43;;
8656;SDS011;4366;50.764;7.184;2022-10-16T14:55:44;0.53;;;0.53;;
8656;SDS011;4366;50.764;7.184;2022-10-16T15:00:46;1.40;;;0.60;;
8656;SDS011;4366;50.764;7.184;2022-10-16T15:05:48;1.33;;;0.50;;
8656;SDS011;4366;50.764;7.184;2022-10-16T15:10:50;0.40;;;0.40;;
8656;SDS011;4366;50.764;7.184;2022-10-16T15:15:52;0.80;;;0.50;;
8656;SDS011;4366;50.764;7.184;2022-10-16T15:20:54;2.67;;;0.90;;
8656;SDS011;4366;50.764;7.184;2022-10-16T15:25:56;0.93;;;0.60;;
8656;SDS011;4366;50.764;7.184;2022-10-16T15:30:58;1.00;;;1.00;;
8656;SDS011;4366;50.764;7.184;2022-10-16T15:36:00;0.63;;;0.63;;
8656;SDS011;4366;50.764;7.184;2022-10-16T15:41:02;0.70;;;0.70;;
8656;SDS011;4366;50.764;7.184;2022-10-16T15:46:05;2.50;;;0.80;;
8656;SDS011;4366;50.764;7.184;2022-10-16T15:51:08;1.10;;;1.07;;
8656;SDS011;4366;50.764;7.184;2022-10-16T15:56:10;0.80;;;0.80;;
8656;SDS011;4366;50.764;7.184;2022-10-16T16:01:12;1.23;;;1.13;;
8656;SDS011;4366;50.764;7.184;2022-10-16T16:06:14;0.77;;;0.77;;
8656;SDS011;4366;50.764;7.184;2022-10-16T16:11:16;0.87;;;0.87;;
8656;SDS011;4366;50.764;7.184;2022-10-16T16:16:18;0.77;;;0.70;;
8656;SDS011;4366;50.764;7.184;2022-10-16T16:21:21;1.00;;;0.90;;
8656;SDS011;4366;50.764;7.184;2022-10-16T16:31:28;0.83;;;0.83;;
8656;SDS011;4366;50.764;7.184;2022-10-16T16:36:31;1.10;;;1.00;;
8656;SDS011;4366;50.764;7.184;2022-10-16T16:41:33;1.67;;;1.00;;
8656;SDS011;4366;50.764;7.184;2022-10-16T16:46:35;1.23;;;1.13;;
8656;SDS011;4366;50.764;7.184;2022-10-16T16:51:37;1.43;;;1.23;;
8656;SDS011;4366;50.764;7.184;2022-10-16T16:56:41;1.38;;;1.27;;
8656;SDS011;4366;50.764;7.184;2022-10-16T17:01:44;1.50;;;1.20;;
8656;SDS011;4366;50.764;7.184;2022-10-16T17:06:47;1.87;;;1.33;;
8656;SDS011;4366;50.764;7.184;2022-10-16T17:11:48;1.27;;;1.17;;
8656;SDS011;4366;50.764;7.184;2022-10-16T17:16:51;1.20;;;1.10;;
8656;SDS011;4366;50.764;7.184;2022-10-16T17:21:53;1.90;;;1.23;;
8656;SDS011;4366;50.764;7.184;2022-10-16T17:26:55;1.20;;;1.10;;
8656;SDS011;4366;50.764;7.184;2022-10-16T17:31:57;3.20;;;1.97;;
8656;SDS011;4366;50.764;7.184;2022-10-16T17:36:59;0.93;;;0.93;;
8656;SDS011;4366;50.764;7.184;2022-10-16T17:42:01;1.70;;;1.27;;
8656;SDS011;4366;50.764;7.184;2022-10-16T17:47:04;1.87;;;1.37;;
8656;SDS011;4366;50.764;7.184;2022-10-16T17:52:06;0.90;;;0.90;;
8656;SDS011;4366;50.764;7.184;2022-10-16T17:57:08;1.77;;;1.13;;
8656;SDS011;4366;50.764;7.184;2022-10-16T18:02:09;1.40;;;1.30;;
8656;SDS011;4366;50.764;7.184;2022-10-16T18:07:12;1.20;;;1.10;;
8656;SDS011;4366;50.764;7.184;2022-10-16T18:12:13;1.10;;;1.10;;
8656;SDS011;4366;50.764;7.184;2022-10-16T18:17:15;1.27;;;1.17;;
8656;SDS011;4366;50.764;7.184;2022-10-16T18:22:20;1.40;;;1.30;;
8656;SDS011;4366;50.764;7.184;2022-10-16T18:27:21;1.17;;;1.13;;
8656;SDS011;4366;50.764;7.184;2022-10-16T18:32:23;1.33;;;1.33;;
8656;SDS011;4366;50.764;7.184;2022-10-16T18:37:25;1.20;;;1.20;;
8656;SDS011;4366;50.764;7.184;2022-10-16T18:42:27;1.90;;;1.80;;
8656;SDS011;4366;50.764;7.184;2022-10-16T18:47:29;1.97;;;1.30;;
8656;SDS011;4366;50.764;7.184;2022-10-16T18:52:30;1.50;;;1.40;;
8656;SDS011;4366;50.764;7.184;2022-10-16T18:57:32;1.53;;;1.17;;
8656;SDS011;4366;50.764;7.184;2022-10-16T19:02:34;1.47;;;1.43;;
8656;SDS011;4366;50.764;7.184;2022-10-16T19:07:38;1.70;;;1.60;;
8656;SDS011;4366;50.764;7.184;2022-10-16T19:12:42;2.90;;;1.23;;
8656;SDS011;4366;50.764;7.184;2022-10-16T19:17:43;1.53;;;1.47;;
8656;SDS011;4366;50.764;7.184;2022-10-16T19:22:45;2.43;;;1.60;;
8656;SDS011;4366;50.764;7.184;2022-10-16T19:27:57;1.70;;;1.60;;
8656;SDS011;4366;50.764;7.184;2022-10-16T19:32:58;2.53;;;2.03;;
8656;SDS011;4366;50.764;7.184;2022-10-16T19:38:00;1.60;;;1.50;;
8656;SDS011;4366;50.764;7.184;2022-10-16T19:43:01;1.90;;;1.80;;
8656;SDS011;4366;50.764;7.184;2022-10-16T19:48:03;1.90;;;1.80;;
8656;SDS011;4366;50.764;7.184;2022-10-16T19:53:05;1.97;;;1.77;;
8656;SDS011;4366;50.764;7.184;2022-10-16T19:58:06;2.83;;;2.23;;
8656;SDS011;4366;50.764;7.184;2022-10-16T20:03:08;2.07;;;1.97;;
8656;SDS011;4366;50.764;7.184;2022-10-16T20:08:09;2.17;;;2.07;;
8656;SDS011;4366;50.764;7.184;2022-10-16T20:13:11;2.30;;;2.10;;
8656;SDS011;4366;50.764;7.184;2022-10-16T20:18:13;2.53;;;2.33;;
8656;SDS011;4366;50.764;7.184;2022-10-16T20:23:16;3.10;;;2.20;;
8656;SDS011;4366;50.764;7.184;2022-10-16T20:28:19;2.30;;;2.20;;
8656;SDS011;4366;50.764;7.184;2022-10-16T20:33:22;2.80;;;2.23;;
8656;SDS011;4366;50.764;7.184;2022-10-16T20:38:24;2.63;;;2.23;;
8656;SDS011;4366;50.764;7.184;2022-10-16T20:43:26;2.77;;;2.40;;
8656;SDS011;4366;50.764;7.184;2022-10-16T20:48:28;2.70;;;2.50;;
8656;SDS011;4366;50.764;7.184;2022-10-16T20:53:30;2.60;;;2.40;;
8656;SDS011;4366;50.764;7.184;2022-10-16T20:58:38;2.70;;;2.50;;
8656;SDS011;4366;50.764;7.184;2022-10-16T21:03:40;2.83;;;2.57;;
8656;SDS011;4366;50.764;7.184;2022-10-16T21:08:42;2.43;;;2.23;;
8656;SDS011;4366;50.764;7.184;2022-10-16T21:13:45;2.60;;;2.40;;
8656;SDS011;4366;50.764;7.184;2022-10-16T21:18:47;2.47;;;2.30;;
8656;SDS011;4366;50.764;7.184;2022-10-16T21:23:49;3.10;;;2.80;;
8656;SDS011;4366;50.764;7.184;2022-10-16T21:29:00;3.53;;;2.87;;
8656;SDS011;4366;50.764;7.184;2022-10-16T21:34:03;3.00;;;2.80;;
8656;SDS011;4366;50.764;7.184;2022-10-16T21:39:09;3.20;;;3.00;;
8656;SDS011;4366;50.764;7.184;2022-10-16T21:44:13;3.00;;;2.80;;
8656;SDS011;4366;50.764;7.184;2022-10-16T21:49:16;4.10;;;3.50;;
8656;SDS011;4366;50.764;7.184;2022-10-16T21:54:23;3.30;;;3.07;;
8656;SDS011;4366;50.764;7.184;2022-10-16T21:59:24;4.17;;;2.63;;
8656;SDS011;4366;50.764;7.184;2022-10-16T22:04:26;3.03;;;2.83;;
8656;SDS011;4366;50.764;7.184;2022-10-16T22:09:28;3.40;;;3.20;;
8656;SDS011;4366;50.764;7.184;2022-10-16T22:14:29;4.63;;;3.57;;
8656;SDS011;4366;50.764;7.184;2022-10-16T22:19:31;3.93;;;3.57;;
8656;SDS011;4366;50.764;7.184;2022-10-16T22:24:33;3.80;;;3.50;;
8656;SDS011;4366;50.764;7.184;2022-10-16T22:29:35;3.70;;;3.40;;
8656;SDS011;4366;50.764;7.184;2022-10-16T22:34:37;4.17;;;3.57;;
8656;SDS011;4366;50.764;7.184;2022-10-16T22:39:38;3.33;;;3.13;;
8656;SDS011;4366;50.764;7.184;2022-10-16T22:44:40;5.40;;;3.40;;
8656;SDS011;4366;50.764;7.184;2022-10-16T22:49:42;4.00;;;3.60;;
8656;SDS011;4366;50.764;7.184;2022-10-16T22:54:44;3.83;;;3.53;;
8656;SDS011;4366;50.764;7.184;2022-10-16T22:59:46;3.70;;;3.40;;
8656;SDS011;4366;50.764;7.184;2022-10-16T23:04:47;3.60;;;3.30;;
8656;SDS011;4366;50.764;7.184;2022-10-16T23:09:50;4.37;;;3.97;;
8656;SDS011;4366;50.764;7.184;2022-10-16T23:14:51;4.10;;;3.80;;
8656;SDS011;4366;50.764;7.184;2022-10-16T23:19:53;4.10;;;3.57;;
8656;SDS011;4366;50.764;7.184;2022-10-16T23:24:55;3.87;;;3.57;;
8656;SDS011;4366;50.764;7.184;2022-10-16T23:29:57;5.73;;;3.27;;
8656;SDS011;4366;50.764;7.184;2022-10-16T23:34:59;6.23;;;3.40;;
8656;SDS011;4366;50.764;7.184;2022-10-16T23:40:02;3.40;;;3.03;;
8656;SDS011;4366;50.764;7.184;2022-10-16T23:45:04;4.13;;;3.10;;
8656;SDS011;4366;50.764;7.184;2022-10-16T23:50:07;3.20;;;3.00;;
8656;SDS011;4366;50.764;7.184;2022-10-16T23:55:10;3.50;;;3.20;;
